Leroy, North Dakota
Current Conditions -  °F | °C
As of 7:15 PM on Tuesday 21 Oct 2014 (Local Time) from K96D Reporting Station
NA  
Wind Chill: 59°   Ceiling: NA
Heat Index: 59°   Visibility: 10mi
Dew Point: 41°   Wind: 22mph
Humidity: 51%   Direction: 150°SSE
Pressure: 29.78"   Gusts: 30mph
Location:  48.9026°N, 97.8187°W
Report Text: K96D 220015Z AUTO 15019G26KT 10SM 15/05 A2978 RMK AO2
Loading
Personal Weather Stations






























Interactive Weather Map
Tropical Storm Tracking
New forecast layout! Learn more

10-Day Weather Forecast

Advertisements
Track Severe Weather on mobile